createdAt,value
2018-12-29T00:00:41.038Z,19.60
2018-12-29T00:03:10.144Z,11.40
2018-12-29T00:05:39.248Z,11.65
2018-12-29T00:08:07.951Z,13.48
2018-12-29T00:10:36.210Z,13.18
2018-12-29T00:13:05.308Z,12.88
2018-12-29T00:15:33.708Z,11.60
2018-12-29T00:18:02.380Z,12.70
2018-12-29T00:20:31.166Z,12.47
2018-12-29T00:23:00.272Z,11.63
2018-12-29T00:25:28.191Z,12.33
2018-12-29T00:27:57.057Z,11.53
2018-12-29T00:30:26.247Z,11.28
2018-12-29T00:32:55.335Z,10.98
2018-12-29T00:35:24.035Z,7.67
2018-12-29T00:37:52.735Z,8.65
2018-12-29T00:40:21.921Z,10.30
2018-12-29T00:42:50.615Z,8.55
2018-12-29T00:45:19.710Z,12.00
2018-12-29T00:47:48.931Z,10.58
2018-12-29T00:50:17.710Z,8.63
2018-12-29T00:52:46.003Z,11.88
2018-12-29T00:55:15.190Z,9.83
2018-12-29T00:57:44.304Z,7.20
2018-12-29T01:00:13.103Z,8.75
2018-12-29T01:02:42.212Z,11.53
2018-12-29T01:05:10.898Z,11.22
2018-12-29T01:07:39.187Z,8.88
2018-12-29T01:10:08.293Z,12.37
2018-12-29T01:12:37.043Z,11.33
2018-12-29T01:15:09.841Z,11.70
2018-12-29T01:17:36.422Z,11.05
2018-12-29T01:20:05.694Z,10.98
2018-12-29T01:22:34.476Z,8.68
2018-12-29T01:25:03.154Z,9.68
2018-12-29T01:27:31.843Z,10.35
2018-12-29T01:30:00.945Z,6.45
2018-12-29T01:32:29.645Z,10.75
2018-12-29T01:34:58.730Z,13.08
2018-12-29T01:37:27.422Z,9.43
2018-12-29T01:39:56.532Z,15.38
2018-12-29T01:42:25.549Z,8.08
2018-12-29T01:44:54.514Z,11.03
2018-12-29T01:47:23.231Z,10.60
2018-12-29T01:49:52.312Z,9.20
2018-12-29T01:52:20.996Z,10.95
2018-12-29T01:54:49.713Z,9.50
2018-12-29T01:57:18.798Z,9.60
2018-12-29T01:59:47.485Z,11.03
2018-12-29T02:02:16.578Z,9.58
2018-12-29T02:04:45.893Z,11.75
2018-12-29T02:07:14.951Z,9.45
2018-12-29T02:09:43.679Z,8.45
2018-12-29T02:12:12.791Z,10.72
2018-12-29T02:14:41.995Z,10.95
2018-12-29T02:17:11.086Z,10.00
2018-12-29T02:19:40.171Z,10.55
2018-12-29T02:22:08.455Z,11.80
2018-12-29T02:24:37.971Z,13.05
2018-12-29T02:27:06.354Z,14.45
2018-12-29T02:29:35.457Z,12.63
2018-12-29T02:32:04.147Z,10.05
2018-12-29T02:34:32.512Z,11.95
2018-12-29T02:37:01.668Z,13.50
2018-12-29T02:39:29.927Z,8.25
2018-12-29T02:41:59.019Z,11.45
2018-12-29T02:44:27.296Z,16.15
2018-12-29T02:46:55.558Z,11.38
2018-12-29T02:49:24.673Z,9.90
2018-12-29T02:51:53.357Z,14.33
2018-12-29T02:54:22.384Z,13.08
2018-12-29T02:56:51.388Z,16.07
2018-12-29T02:59:20.351Z,17.23
2018-12-29T03:01:48.971Z,15.25
2018-12-29T03:04:18.044Z,17.98
2018-12-29T03:06:47.227Z,19.73
2018-12-29T03:09:15.508Z,14.63
2018-12-29T03:11:44.201Z,14.25
2018-12-29T03:14:13.306Z,15.20
2018-12-29T03:16:42.001Z,12.75
2018-12-29T03:19:11.122Z,20.17
2018-12-29T03:21:40.197Z,15.15
2018-12-29T03:24:09.284Z,14.25
2018-12-29T03:26:38.400Z,13.45
2018-12-29T03:29:07.107Z,16.30
2018-12-29T03:31:36.145Z,14.43
2018-12-29T03:34:04.875Z,16.37
2018-12-29T03:36:33.989Z,13.40
2018-12-29T03:39:04.243Z,12.73
2018-12-29T03:41:33.083Z,18.20
2018-12-29T03:44:02.191Z,16.73
2018-12-29T03:46:31.287Z,20.65
2018-12-29T03:48:59.570Z,17.15
2018-12-29T03:51:28.667Z,20.77
2018-12-29T03:53:57.878Z,18.60
2018-12-29T03:56:26.563Z,15.15
2018-12-29T03:58:55.657Z,18.73
2018-12-29T04:01:24.311Z,15.48
2018-12-29T04:03:52.525Z,17.12
2018-12-29T04:06:21.126Z,17.55
2018-12-29T04:09:08.238Z,17.37
2018-12-29T04:11:36.914Z,18.20
2018-12-29T04:14:05.625Z,17.65
2018-12-29T04:16:34.313Z,18.40
2018-12-29T04:19:03.408Z,19.10
2018-12-29T04:21:32.519Z,19.40
2018-12-29T04:24:01.203Z,14.35
2018-12-29T04:26:30.432Z,18.00
2018-12-29T04:28:59.501Z,18.48
2018-12-29T04:31:28.598Z,18.95
2018-12-29T04:33:57.288Z,21.10
2018-12-29T04:36:26.382Z,19.20
2018-12-29T04:38:55.116Z,16.23
2018-12-29T04:41:23.785Z,16.40
2018-12-29T04:43:52.558Z,16.67
2018-12-29T04:46:21.695Z,22.10
2018-12-29T04:48:50.555Z,17.87
2018-12-29T04:51:19.655Z,18.92
2018-12-29T04:53:48.767Z,22.37
2018-12-29T04:56:17.772Z,18.73
2018-12-29T04:58:46.458Z,17.73
2018-12-29T05:01:15.233Z,20.52
2018-12-29T05:03:44.334Z,21.87
2018-12-29T05:06:13.435Z,19.80
2018-12-29T05:08:41.327Z,21.97
2018-12-29T05:11:10.307Z,21.65
2018-12-29T05:13:39.348Z,20.90
2018-12-29T05:16:12.807Z,22.82
2018-12-29T05:18:39.036Z,20.92
2018-12-29T05:21:08.742Z,27.65
2018-12-29T05:23:37.431Z,22.93
2018-12-29T05:26:06.143Z,28.00
2018-12-29T05:28:34.819Z,24.00
2018-12-29T05:31:03.919Z,23.07
2018-12-29T05:33:32.200Z,21.02
2018-12-29T05:36:01.239Z,21.23
2018-12-29T05:38:29.884Z,23.83
2018-12-29T05:40:58.578Z,22.60
2018-12-29T05:43:27.679Z,22.45
2018-12-29T05:45:56.466Z,23.70
2018-12-29T05:48:25.503Z,23.07
2018-12-29T05:50:54.575Z,25.90
2018-12-29T05:53:23.250Z,31.93
2018-12-29T05:55:52.354Z,28.17
2018-12-29T05:58:21.713Z,26.25
2018-12-29T06:00:50.965Z,21.73
2018-12-29T06:03:20.161Z,22.48
2018-12-29T06:05:48.854Z,22.40
2018-12-29T06:08:17.960Z,28.87
2018-12-29T06:10:46.333Z,22.77
2018-12-29T06:13:15.372Z,25.48
2018-12-29T06:15:44.043Z,23.05
2018-12-29T06:18:12.715Z,23.65
2018-12-29T06:20:41.910Z,18.65
2018-12-29T06:23:11.027Z,23.87
2018-12-29T06:25:40.121Z,23.92
2018-12-29T06:28:08.802Z,25.65
2018-12-29T06:30:37.911Z,23.25
2018-12-29T06:33:06.174Z,23.12
2018-12-29T06:35:35.242Z,24.70
2018-12-29T06:38:04.302Z,23.18
2018-12-29T06:40:33.386Z,23.27
2018-12-29T06:43:02.485Z,25.60
2018-12-29T06:45:31.588Z,24.37
2018-12-29T06:47:59.919Z,28.65
2018-12-29T06:50:28.569Z,24.92
2018-12-29T06:52:57.684Z,30.25
2018-12-29T06:55:26.768Z,31.52
2018-12-29T06:57:55.031Z,30.48
2018-12-29T07:00:24.130Z,23.02
2018-12-29T07:02:52.865Z,38.48
2018-12-29T07:05:21.519Z,23.30
2018-12-29T07:07:50.626Z,20.27
2018-12-29T07:10:18.895Z,21.80
2018-12-29T07:12:47.993Z,22.15
2018-12-29T07:15:17.094Z,18.30
2018-12-29T07:17:46.194Z,19.82
2018-12-29T07:20:15.305Z,16.30
2018-12-29T07:22:44.386Z,16.23
2018-12-29T07:25:12.990Z,19.27
2018-12-29T07:27:41.275Z,21.30
2018-12-29T07:30:10.057Z,22.22
2018-12-29T07:32:38.749Z,15.70
2018-12-29T07:35:07.427Z,17.40
2018-12-29T07:37:36.122Z,17.60
2018-12-29T07:40:04.525Z,19.77
2018-12-29T07:42:33.225Z,15.83
2018-12-29T07:45:02.297Z,16.53
2018-12-29T07:47:31.000Z,18.57
2018-12-29T07:49:59.259Z,17.40
2018-12-29T07:52:27.549Z,17.50
2018-12-29T07:54:56.252Z,17.07
2018-12-29T07:57:25.028Z,16.17
2018-12-29T07:59:53.711Z,17.37
2018-12-29T08:02:22.400Z,18.17
2018-12-29T08:04:51.101Z,18.43
2018-12-29T08:07:20.216Z,18.10
2018-12-29T08:09:49.306Z,17.50
2018-12-29T08:12:17.564Z,21.53
2018-12-29T08:14:47.611Z,17.33
2018-12-29T08:17:17.457Z,18.03
2018-12-29T08:19:46.214Z,17.50
2018-12-29T08:22:15.434Z,19.10
2018-12-29T08:24:44.012Z,18.07
2018-12-29T08:27:12.731Z,16.07
2018-12-29T08:29:41.905Z,16.83
2018-12-29T08:32:10.186Z,16.37
2018-12-29T08:34:38.888Z,17.37
2018-12-29T08:37:07.141Z,16.93
2018-12-29T08:39:36.142Z,15.90
2018-12-29T08:42:04.423Z,15.50
2018-12-29T08:44:33.125Z,16.67
2018-12-29T08:47:04.663Z,15.80
2018-12-29T08:49:32.949Z,15.63
2018-12-29T08:52:01.952Z,16.10
2018-12-29T08:54:31.035Z,13.20
2018-12-29T08:57:00.153Z,13.90
2018-12-29T08:59:28.844Z,14.93
2018-12-29T09:01:58.032Z,14.43
2018-12-29T09:04:27.135Z,14.37
2018-12-29T09:06:55.414Z,14.60
2018-12-29T09:09:24.425Z,13.10
2018-12-29T09:11:53.116Z,14.33
2018-12-29T09:14:22.212Z,13.40
2018-12-29T09:16:51.315Z,15.30
2018-12-29T09:19:26.984Z,13.47
2018-12-29T09:21:50.136Z,14.53
2018-12-29T09:24:19.243Z,13.17
2018-12-29T09:26:47.999Z,15.03
2018-12-29T09:29:17.020Z,13.20
2018-12-29T09:31:45.402Z,14.80
2018-12-29T09:34:13.758Z,14.57
2018-12-29T09:36:42.451Z,13.90
2018-12-29T09:39:11.149Z,13.60
2018-12-29T09:41:39.847Z,14.67
2018-12-29T09:44:08.538Z,13.00
2018-12-29T09:46:37.623Z,14.13
2018-12-29T09:49:06.313Z,12.77
2018-12-29T09:51:35.447Z,11.70
2018-12-29T09:54:05.536Z,11.87
2018-12-29T09:56:34.269Z,12.20
2018-12-29T09:59:02.919Z,12.57
2018-12-29T10:01:32.027Z,12.20
2018-12-29T10:04:00.610Z,11.83
2018-12-29T10:06:31.337Z,15.13
2018-12-29T10:09:00.297Z,12.70
2018-12-29T10:11:29.339Z,13.10
2018-12-29T10:13:58.048Z,16.70
2018-12-29T10:16:26.311Z,16.60
2018-12-29T10:18:55.404Z,16.27
2018-12-29T10:21:24.710Z,17.73
2018-12-29T10:23:53.396Z,17.67
2018-12-29T10:26:22.536Z,18.67
2018-12-29T10:28:51.240Z,16.10
2018-12-29T10:31:20.295Z,15.80
2018-12-29T10:33:48.977Z,16.20
2018-12-29T10:36:17.770Z,15.83
2018-12-29T10:38:46.568Z,15.03
2018-12-29T10:41:15.711Z,14.90
2018-12-29T10:43:44.482Z,14.33
2018-12-29T10:46:13.572Z,16.00
2018-12-29T10:48:42.733Z,14.30
2018-12-29T10:51:10.931Z,16.77
2018-12-29T10:53:39.618Z,16.90
2018-12-29T10:56:08.319Z,17.87
2018-12-29T10:58:37.372Z,16.50
2018-12-29T11:01:06.108Z,18.80
2018-12-29T11:03:35.231Z,19.87
2018-12-29T11:06:04.429Z,18.17
2018-12-29T11:08:33.117Z,20.33
2018-12-29T11:11:01.888Z,20.43
2018-12-29T11:13:30.996Z,16.93
2018-12-29T11:15:59.680Z,18.93
2018-12-29T11:18:28.360Z,17.50
2018-12-29T11:20:57.054Z,17.53
2018-12-29T11:23:26.149Z,19.43
2018-12-29T11:25:55.278Z,17.57
2018-12-29T11:28:23.567Z,21.73
2018-12-29T11:30:52.644Z,19.40
2018-12-29T11:33:20.926Z,18.97
2018-12-29T11:35:49.838Z,19.80
2018-12-29T11:38:18.535Z,21.83
2018-12-29T11:40:47.523Z,22.50
2018-12-29T11:43:16.823Z,20.00
2018-12-29T11:45:45.904Z,19.17
2018-12-29T11:48:14.387Z,20.00
2018-12-29T11:50:43.176Z,22.47
2018-12-29T11:53:12.321Z,17.90
2018-12-29T11:55:41.303Z,20.90
2018-12-29T11:58:10.209Z,21.27
2018-12-29T12:00:38.893Z,22.10
2018-12-29T12:03:07.640Z,24.60
2018-12-29T12:05:35.938Z,24.10
2018-12-29T12:08:05.445Z,23.57
2018-12-29T12:10:34.138Z,24.30
2018-12-29T12:13:02.911Z,21.60
2018-12-29T12:15:31.819Z,21.17
2018-12-29T12:18:00.500Z,23.40
2018-12-29T12:20:29.512Z,22.40
2018-12-29T12:22:58.216Z,22.17
2018-12-29T12:25:27.298Z,21.73
2018-12-29T12:27:55.932Z,19.77
2018-12-29T12:30:24.694Z,20.97
2018-12-29T12:32:53.362Z,25.97
2018-12-29T12:35:22.089Z,19.90
2018-12-29T12:37:50.767Z,24.50
2018-12-29T12:40:19.869Z,23.93
2018-12-29T12:42:48.656Z,23.87
2018-12-29T12:45:16.933Z,25.40
2018-12-29T12:47:45.762Z,21.30
2018-12-29T12:50:14.041Z,24.40
2018-12-29T12:52:42.684Z,23.80
2018-12-29T12:55:11.391Z,27.70
2018-12-29T12:57:40.194Z,27.07
2018-12-29T13:00:09.598Z,23.60
2018-12-29T13:02:38.697Z,22.27
2018-12-29T13:05:07.983Z,21.30
2018-12-29T13:07:37.097Z,20.37
2018-12-29T13:10:06.837Z,21.83
2018-12-29T13:12:35.795Z,22.30
2018-12-29T13:15:04.724Z,25.03
2018-12-29T13:17:33.991Z,26.90
2018-12-29T13:20:02.781Z,22.10
2018-12-29T13:22:31.879Z,25.30
2018-12-29T13:25:01.052Z,23.73
2018-12-29T13:27:55.085Z,22.70
2018-12-29T13:30:23.755Z,22.90
2018-12-29T13:32:52.772Z,25.90
2018-12-29T13:35:21.891Z,26.33
2018-12-29T13:37:50.973Z,23.07
2018-12-29T13:40:20.097Z,24.20
2018-12-29T13:42:48.758Z,22.93
2018-12-29T13:45:17.439Z,20.60
2018-12-29T13:47:46.125Z,23.77
2018-12-29T13:50:14.868Z,28.43
2018-12-29T13:52:43.664Z,25.17
2018-12-29T13:55:12.834Z,27.75
2018-12-29T13:57:41.605Z,26.47
2018-12-29T14:00:10.411Z,27.73
2018-12-29T14:02:39.603Z,28.03
2018-12-29T14:05:27.602Z,22.77
2018-12-29T14:07:56.738Z,30.63
2018-12-29T14:10:25.427Z,28.20
2018-12-29T14:12:54.267Z,33.20
2018-12-29T14:15:23.243Z,25.57
2018-12-29T14:17:52.342Z,27.07
2018-12-29T14:20:21.133Z,28.03
2018-12-29T14:22:49.551Z,26.13
2018-12-29T14:25:18.329Z,28.57
2018-12-29T14:27:47.095Z,25.50
2018-12-29T14:30:16.118Z,30.23
2018-12-29T14:32:45.283Z,27.60
2018-12-29T14:35:14.227Z,28.20
2018-12-29T14:37:42.967Z,23.13
2018-12-29T14:40:11.243Z,29.07
2018-12-29T14:42:39.954Z,31.83
2018-12-29T14:45:08.771Z,30.95
2018-12-29T14:47:37.140Z,25.82
2018-12-29T14:50:06.296Z,27.07
2018-12-29T14:52:35.119Z,30.20
2018-12-29T14:55:03.822Z,28.47
2018-12-29T14:57:32.607Z,37.80
2018-12-29T15:00:01.730Z,32.13
2018-12-29T15:02:30.818Z,29.42
2018-12-29T15:04:59.449Z,28.83
2018-12-29T15:07:28.189Z,30.30
2018-12-29T15:09:57.368Z,30.50
2018-12-29T15:12:26.479Z,27.20
2018-12-29T15:14:55.476Z,29.10
2018-12-29T15:17:23.854Z,26.62
2018-12-29T15:19:52.655Z,27.07
2018-12-29T15:22:21.751Z,26.77
2018-12-29T15:24:51.167Z,25.95
2018-12-29T15:27:20.271Z,40.53
2018-12-29T15:29:49.476Z,31.55
2018-12-29T15:32:18.634Z,34.10
2018-12-29T15:34:47.515Z,27.65
2018-12-29T15:37:16.554Z,27.40
2018-12-29T15:39:45.357Z,31.45
2018-12-29T15:42:14.078Z,30.92
2018-12-29T15:44:42.746Z,29.67
2018-12-29T15:47:11.857Z,32.13
2018-12-29T15:50:05.744Z,32.13
2018-12-29T15:52:34.089Z,29.72
2018-12-29T15:55:03.389Z,30.25
2018-12-29T15:57:31.795Z,27.48
2018-12-29T16:00:00.684Z,31.48
2018-12-29T16:02:30.109Z,27.07
2018-12-29T16:04:59.205Z,34.40
2018-12-29T16:07:27.887Z,32.15
2018-12-29T16:09:56.557Z,28.80
2018-12-29T16:12:25.504Z,32.08
2018-12-29T16:14:54.559Z,40.00
2018-12-29T16:17:23.677Z,32.20
2018-12-29T16:19:52.545Z,31.23
2018-12-29T16:22:21.254Z,37.40
2018-12-29T16:24:49.899Z,36.88
2018-12-29T16:27:19.048Z,45.65
2018-12-29T16:29:47.327Z,38.08
2018-12-29T16:32:16.298Z,42.65
2018-12-29T16:34:45.408Z,37.60
2018-12-29T16:37:14.511Z,38.70
2018-12-29T16:39:43.629Z,31.45
2018-12-29T16:42:12.814Z,37.70
2018-12-29T16:44:41.189Z,35.78
2018-12-29T16:47:10.165Z,41.63
2018-12-29T16:49:39.253Z,40.00
2018-12-29T16:52:07.968Z,49.33
2018-12-29T16:54:36.660Z,40.23
2018-12-29T16:57:05.457Z,37.28
2018-12-29T16:59:35.193Z,43.55
2018-12-29T17:02:04.312Z,44.30
2018-12-29T17:04:33.388Z,37.15
2018-12-29T17:07:01.661Z,41.63
2018-12-29T17:09:30.989Z,42.80
2018-12-29T17:12:00.046Z,37.65
2018-12-29T17:14:29.153Z,41.42
2018-12-29T17:16:58.391Z,36.38
2018-12-29T17:19:27.450Z,43.25
2018-12-29T17:21:56.303Z,42.43
2018-12-29T17:24:24.545Z,47.75
2018-12-29T17:26:54.064Z,45.17
2018-12-29T17:29:23.228Z,47.83
2018-12-29T17:31:52.079Z,40.25
2018-12-29T17:34:21.227Z,45.25
2018-12-29T17:36:50.252Z,41.68
2018-12-29T17:39:18.944Z,46.05
2018-12-29T17:41:48.316Z,38.23
2018-12-29T17:44:17.415Z,50.48
2018-12-29T17:46:47.476Z,45.85
2018-12-29T17:49:35.487Z,42.98
2018-12-29T17:52:05.002Z,42.43
2018-12-29T17:54:33.790Z,43.85
2018-12-29T17:57:02.904Z,45.35
2018-12-29T17:59:31.734Z,39.03
2018-12-29T18:02:00.463Z,44.00
2018-12-29T18:04:29.474Z,43.35
2018-12-29T18:06:58.172Z,41.48
2018-12-29T18:09:26.852Z,45.75
2018-12-29T18:11:56.865Z,46.92
2018-12-29T18:14:25.985Z,52.35
2018-12-29T18:16:54.676Z,47.17
2018-12-29T18:19:30.423Z,41.02
2018-12-29T18:21:53.989Z,41.37
2018-12-29T18:24:22.679Z,41.13
2018-12-29T18:26:51.544Z,47.10
2018-12-29T18:29:20.282Z,43.35
2018-12-29T18:31:49.358Z,45.10
2018-12-29T18:34:17.767Z,43.02
2018-12-29T18:36:46.848Z,42.85
2018-12-29T18:39:15.964Z,46.68
2018-12-29T18:41:45.294Z,39.38
2018-12-29T18:44:14.249Z,44.48
2018-12-29T18:46:42.961Z,46.23
2018-12-29T18:49:12.345Z,54.67
2018-12-29T18:51:41.629Z,46.80
2018-12-29T18:54:09.867Z,47.00
2018-12-29T18:56:45.348Z,40.38
2018-12-29T18:59:09.579Z,48.02
2018-12-29T19:01:38.519Z,43.58
2018-12-29T19:04:06.843Z,41.18
2018-12-29T19:06:36.701Z,47.08
2018-12-29T19:09:05.894Z,40.58
2018-12-29T19:11:35.029Z,39.45
2018-12-29T19:14:03.959Z,47.70
2018-12-29T19:16:33.166Z,41.23
2018-12-29T19:19:01.441Z,50.85
2018-12-29T19:21:30.528Z,40.65
2018-12-29T19:23:59.749Z,41.05
2018-12-29T19:26:29.431Z,42.48
2018-12-29T19:28:59.968Z,42.43
2018-12-29T19:31:28.779Z,40.63
2018-12-29T19:33:57.782Z,41.95
2018-12-29T19:36:26.084Z,41.58
2018-12-29T19:38:54.868Z,41.55
2018-12-29T19:41:23.660Z,40.50
2018-12-29T19:43:53.352Z,43.75
2018-12-29T19:46:22.874Z,42.55
2018-12-29T19:48:51.993Z,47.45
2018-12-29T19:51:21.397Z,46.75
2018-12-29T19:53:50.172Z,42.38
2018-12-29T19:56:18.856Z,44.80
2018-12-29T19:58:47.247Z,46.55
2018-12-29T20:01:16.469Z,43.65
2018-12-29T20:03:45.540Z,40.73
2018-12-29T20:06:14.581Z,43.02
2018-12-29T20:08:43.851Z,44.18
2018-12-29T20:11:13.295Z,43.15
2018-12-29T20:13:42.726Z,49.20
2018-12-29T20:16:12.013Z,44.45
2018-12-29T20:18:40.776Z,46.02
2018-12-29T20:21:10.225Z,41.88
2018-12-29T20:23:39.536Z,43.73
2018-12-29T20:26:27.333Z,51.65
2018-12-29T20:28:56.987Z,47.45
2018-12-29T20:31:26.292Z,47.78
2018-12-29T20:33:55.627Z,49.10
2018-12-29T20:36:24.495Z,50.40
2018-12-29T20:38:53.814Z,46.55
2018-12-29T20:41:22.775Z,49.10
2018-12-29T20:43:51.774Z,49.45
2018-12-29T20:46:21.649Z,47.35
2018-12-29T20:49:09.726Z,50.78
2018-12-29T20:51:39.751Z,49.13
2018-12-29T20:54:08.809Z,43.23
2018-12-29T20:56:37.115Z,48.13
2018-12-29T20:59:06.001Z,44.38
2018-12-29T21:01:33.948Z,46.33
2018-12-29T21:04:03.065Z,44.90
2018-12-29T21:06:31.289Z,44.38
2018-12-29T21:08:59.913Z,43.25
2018-12-29T21:11:28.410Z,40.23
2018-12-29T21:13:57.077Z,39.13
2018-12-29T21:16:25.369Z,42.38
2018-12-29T21:18:53.640Z,46.08
2018-12-29T21:21:22.361Z,44.45
2018-12-29T21:23:57.172Z,42.05
2018-12-29T21:26:25.938Z,46.50
2018-12-29T21:28:55.234Z,42.75
2018-12-29T21:31:24.548Z,46.28
2018-12-29T21:33:54.312Z,49.15
2018-12-29T21:36:22.757Z,41.92
2018-12-29T21:38:51.500Z,45.03
2018-12-29T21:41:20.253Z,42.93
2018-12-29T21:43:49.788Z,46.50
2018-12-29T21:46:18.048Z,42.25
2018-12-29T21:48:46.240Z,42.35
2018-12-29T21:51:14.522Z,43.35
2018-12-29T21:53:43.815Z,42.20
2018-12-29T21:56:13.117Z,47.80
2018-12-29T21:58:41.820Z,47.35
2018-12-29T22:01:10.611Z,42.80
2018-12-29T22:03:39.287Z,41.68
2018-12-29T22:06:08.333Z,48.20
2018-12-29T22:08:37.092Z,41.60
2018-12-29T22:11:06.426Z,42.25
2018-12-29T22:13:35.404Z,46.85
2018-12-29T22:16:03.768Z,51.60
2018-12-29T22:18:32.461Z,39.75
2018-12-29T22:21:01.224Z,45.45
2018-12-29T22:23:29.940Z,38.67
2018-12-29T22:25:59.097Z,41.05
2018-12-29T22:28:27.827Z,40.95
2018-12-29T22:30:56.154Z,39.10
2018-12-29T22:33:24.905Z,38.08
2018-12-29T22:35:54.106Z,40.85
2018-12-29T22:38:22.060Z,42.03
2018-12-29T22:40:51.177Z,37.40
2018-12-29T22:43:19.892Z,37.20
2018-12-29T22:45:49.073Z,35.08
2018-12-29T22:48:18.266Z,42.27
2018-12-29T22:50:47.694Z,47.48
2018-12-29T22:53:16.426Z,53.48
2018-12-29T22:55:45.571Z,39.35
2018-12-29T22:58:14.776Z,43.83
2018-12-29T23:00:44.478Z,37.13
2018-12-29T23:03:13.702Z,44.30
2018-12-29T23:05:42.404Z,32.70
2018-12-29T23:08:11.083Z,39.88
2018-12-29T23:10:39.782Z,40.80
2018-12-29T23:13:08.883Z,38.90
2018-12-29T23:15:37.590Z,36.15
2018-12-29T23:18:06.652Z,35.88
2018-12-29T23:20:36.327Z,34.00
2018-12-29T23:23:05.080Z,43.05
2018-12-29T23:25:34.158Z,42.15
2018-12-29T23:28:02.546Z,32.33
2018-12-29T23:30:31.631Z,30.17
2018-12-29T23:33:00.349Z,34.63
2018-12-29T23:35:30.723Z,36.63
2018-12-29T23:37:59.932Z,34.45
2018-12-29T23:40:29.076Z,36.70
2018-12-29T23:42:58.219Z,28.98
2018-12-29T23:45:26.923Z,33.02
2018-12-29T23:47:55.231Z,30.48
2018-12-29T23:50:24.325Z,34.73
2018-12-29T23:52:53.559Z,34.03
2018-12-29T23:55:22.932Z,37.08
2018-12-29T23:57:52.161Z,40.35
